sensor_id;sensor_type;location;lat;lon;timestamp;pressure;altitude;pressure_sealevel;temperature;humidity
8398;BME280;4236;54.504;9.588;2023-04-29T00:02:27;101273.38;;;7.91;100.00
8398;BME280;4236;54.504;9.588;2023-04-29T00:04:58;101269.19;;;7.89;100.00
8398;BME280;4236;54.504;9.588;2023-04-29T00:07:27;101270.53;;;7.85;100.00
8398;BME280;4236;54.504;9.588;2023-04-29T00:09:55;101273.69;;;7.80;100.00
8398;BME280;4236;54.504;9.588;2023-04-29T00:12:22;101274.38;;;7.82;100.00
8398;BME280;4236;54.504;9.588;2023-04-29T00:14:50;101273.34;;;7.83;100.00
8398;BME280;4236;54.504;9.588;2023-04-29T00:17:17;101277.03;;;7.82;100.00
8398;BME280;4236;54.504;9.588;2023-04-29T00:19:45;101278.16;;;7.79;100.00
8398;BME280;4236;54.504;9.588;2023-04-29T00:22:14;101264.41;;;7.76;100.00
8398;BME280;4236;54.504;9.588;2023-04-29T00:24:42;101271.53;;;7.75;100.00
8398;BME280;4236;54.504;9.588;2023-04-29T00:27:10;101271.34;;;7.77;100.00
8398;BME280;4236;54.504;9.588;2023-04-29T00:29:38;101279.00;;;7.72;100.00
8398;BME280;4236;54.504;9.588;2023-04-29T00:32:05;101276.66;;;7.69;100.00
8398;BME280;4236;54.504;9.588;2023-04-29T00:34:33;101270.69;;;7.59;100.00
8398;BME280;4236;54.504;9.588;2023-04-29T00:37:01;101267.38;;;7.49;100.00
8398;BME280;4236;54.504;9.588;2023-04-29T00:39:30;101277.28;;;7.47;100.00
8398;BME280;4236;54.504;9.588;2023-04-29T00:41:58;101276.13;;;7.41;100.00
8398;BME280;4236;54.504;9.588;2023-04-29T00:44:26;101281.28;;;7.35;100.00
8398;BME280;4236;54.504;9.588;2023-04-29T00:46:54;101279.28;;;7.29;100.00
8398;BME280;4236;54.504;9.588;2023-04-29T00:49:21;101287.22;;;7.29;100.00
8398;BME280;4236;54.504;9.588;2023-04-29T00:51:49;101293.84;;;7.33;100.00
8398;BME280;4236;54.504;9.588;2023-04-29T00:54:17;101294.03;;;7.31;100.00
8398;BME280;4236;54.504;9.588;2023-04-29T00:56:46;101289.88;;;7.29;100.00
8398;BME280;4236;54.504;9.588;2023-04-29T00:59:14;101296.50;;;7.24;100.00
8398;BME280;4236;54.504;9.588;2023-04-29T01:01:42;101289.69;;;7.22;100.00
8398;BME280;4236;54.504;9.588;2023-04-29T01:04:11;101298.81;;;7.19;100.00
8398;BME280;4236;54.504;9.588;2023-04-29T01:06:48;101298.44;;;7.14;100.00
8398;BME280;4236;54.504;9.588;2023-04-29T01:09:34;101299.44;;;7.13;100.00
8398;BME280;4236;54.504;9.588;2023-04-29T01:12:14;101291.31;;;7.15;100.00
8398;BME280;4236;54.504;9.588;2023-04-29T01:14:53;101291.31;;;7.15;100.00
8398;BME280;4236;54.504;9.588;2023-04-29T01:17:24;101296.09;;;7.11;100.00
8398;BME280;4236;54.504;9.588;2023-04-29T01:19:54;101300.25;;;7.14;100.00
8398;BME280;4236;54.504;9.588;2023-04-29T01:22:22;101297.97;;;7.19;100.00
8398;BME280;4236;54.504;9.588;2023-04-29T01:24:51;101298.31;;;7.24;100.00
8398;BME280;4236;54.504;9.588;2023-04-29T01:27:27;101301.63;;;7.26;100.00
8398;BME280;4236;54.504;9.588;2023-04-29T01:30:00;101302.47;;;7.27;100.00
8398;BME280;4236;54.504;9.588;2023-04-29T01:32:36;101301.28;;;7.21;100.00
8398;BME280;4236;54.504;9.588;2023-04-29T01:35:14;101298.94;;;7.18;100.00
8398;BME280;4236;54.504;9.588;2023-04-29T01:37:51;101301.28;;;7.21;100.00
8398;BME280;4236;54.504;9.588;2023-04-29T01:40:29;101295.31;;;7.19;100.00
8398;BME280;4236;54.504;9.588;2023-04-29T01:43:01;101303.28;;;7.19;100.00
8398;BME280;4236;54.504;9.588;2023-04-29T01:45:31;101305.09;;;7.18;100.00
8398;BME280;4236;54.504;9.588;2023-04-29T01:48:00;101309.22;;;7.13;100.00
8398;BME280;4236;54.504;9.588;2023-04-29T01:50:30;101312.72;;;7.13;100.00
8398;BME280;4236;54.504;9.588;2023-04-29T01:52:58;101321.16;;;7.17;100.00
8398;BME280;4236;54.504;9.588;2023-04-29T01:55:27;101316.69;;;7.17;100.00
8398;BME280;4236;54.504;9.588;2023-04-29T01:57:54;101321.16;;;7.17;100.00
8398;BME280;4236;54.504;9.588;2023-04-29T02:00:22;101320.84;;;7.20;100.00
8398;BME280;4236;54.504;9.588;2023-04-29T02:02:50;101317.38;;;7.19;100.00
8398;BME280;4236;54.504;9.588;2023-04-29T02:05:17;101321.84;;;7.19;100.00
8398;BME280;4236;54.504;9.588;2023-04-29T02:07:45;101320.69;;;7.21;100.00
8398;BME280;4236;54.504;9.588;2023-04-29T02:10:13;101323.66;;;7.18;100.00
8398;BME280;4236;54.504;9.588;2023-04-29T02:12:42;101321.00;;;7.18;100.00
8398;BME280;4236;54.504;9.588;2023-04-29T02:15:10;101332.28;;;7.20;100.00
8398;BME280;4236;54.504;9.588;2023-04-29T02:17:38;101327.81;;;7.21;100.00
8398;BME280;4236;54.504;9.588;2023-04-29T02:20:07;101327.81;;;7.21;100.00
8398;BME280;4236;54.504;9.588;2023-04-29T02:22:35;101320.84;;;7.20;100.00
8398;BME280;4236;54.504;9.588;2023-04-29T02:25:03;101320.84;;;7.20;100.00
8398;BME280;4236;54.504;9.588;2023-04-29T02:27:31;101333.28;;;7.19;100.00
8398;BME280;4236;54.504;9.588;2023-04-29T02:30:00;101326.47;;;7.17;100.00
8398;BME280;4236;54.504;9.588;2023-04-29T02:32:30;101336.59;;;7.21;100.00
8398;BME280;4236;54.504;9.588;2023-04-29T02:34:57;101342.25;;;7.27;100.00
8398;BME280;4236;54.504;9.588;2023-04-29T02:37:25;101335.63;;;7.31;100.00
8398;BME280;4236;54.504;9.588;2023-04-29T02:39:53;101347.22;;;7.30;100.00
8398;BME280;4236;54.504;9.588;2023-04-29T02:42:21;101342.94;;;7.29;100.00
8398;BME280;4236;54.504;9.588;2023-04-29T02:44:49;101348.72;;;7.32;100.00
8398;BME280;4236;54.504;9.588;2023-04-29T02:47:18;101340.78;;;7.32;100.00
8398;BME280;4236;54.504;9.588;2023-04-29T02:49:45;101346.25;;;7.31;100.00
8398;BME280;4236;54.504;9.588;2023-04-29T02:52:13;101341.94;;;7.30;100.00
8398;BME280;4236;54.504;9.588;2023-04-29T02:54:42;101350.91;;;7.29;100.00
8398;BME280;4236;54.504;9.588;2023-04-29T02:57:10;101343.59;;;7.31;100.00
8398;BME280;4236;54.504;9.588;2023-04-29T02:59:38;101345.28;;;7.32;100.00
8398;BME280;4236;54.504;9.588;2023-04-29T03:02:05;101346.41;;;7.29;100.00
8398;BME280;4236;54.504;9.588;2023-04-29T03:04:34;101347.09;;;7.31;100.00
8398;BME280;4236;54.504;9.588;2023-04-29T03:07:02;101360.34;;;7.31;100.00
8398;BME280;4236;54.504;9.588;2023-04-29T03:09:30;101352.91;;;7.35;100.00
8398;BME280;4236;54.504;9.588;2023-04-29T03:11:58;101355.25;;;7.38;100.00
8398;BME280;4236;54.504;9.588;2023-04-29T03:14:26;101358.56;;;7.40;100.00
8398;BME280;4236;54.504;9.588;2023-04-29T03:16:54;101354.09;;;7.40;100.00
8398;BME280;4236;54.504;9.588;2023-04-29T03:19:22;101364.00;;;7.38;100.00
8398;BME280;4236;54.504;9.588;2023-04-29T03:21:51;101363.22;;;7.38;100.00
8398;BME280;4236;54.504;9.588;2023-04-29T03:24:19;101369.63;;;7.35;100.00
8398;BME280;4236;54.504;9.588;2023-04-29T03:26:47;101367.50;;;7.39;100.00
8398;BME280;4236;54.504;9.588;2023-04-29T03:29:15;101373.97;;;7.36;100.00
8398;BME280;4236;54.504;9.588;2023-04-29T03:31:42;101362.19;;;7.39;100.00
8398;BME280;4236;54.504;9.588;2023-04-29T03:34:10;101373.66;;;7.39;100.00
8398;BME280;4236;54.504;9.588;2023-04-29T03:36:39;101365.69;;;7.39;100.00
8398;BME280;4236;54.504;9.588;2023-04-29T03:39:08;101382.44;;;7.40;100.00
8398;BME280;4236;54.504;9.588;2023-04-29T03:41:37;101380.75;;;7.39;100.00
8398;BME280;4236;54.504;9.588;2023-04-29T03:44:05;101379.78;;;7.40;100.00
8398;BME280;4236;54.504;9.588;2023-04-29T03:46:32;101377.97;;;7.40;100.00
8398;BME280;4236;54.504;9.588;2023-04-29T03:49:00;101385.09;;;7.40;100.00
8398;BME280;4236;54.504;9.588;2023-04-29T03:51:28;101387.09;;;7.38;100.00
8398;BME280;4236;54.504;9.588;2023-04-29T03:53:56;101387.56;;;7.41;100.00
8398;BME280;4236;54.504;9.588;2023-04-29T03:56:25;101387.75;;;7.40;100.00
8398;BME280;4236;54.504;9.588;2023-04-29T03:58:53;101395.72;;;7.40;100.00
8398;BME280;4236;54.504;9.588;2023-04-29T04:01:21;101384.25;;;7.39;100.00
8398;BME280;4236;54.504;9.588;2023-04-29T04:03:48;101399.03;;;7.42;100.00
8398;BME280;4236;54.504;9.588;2023-04-29T04:06:16;101404.66;;;7.39;100.00
8398;BME280;4236;54.504;9.588;2023-04-29T04:08:44;101398.19;;;7.41;100.00
8398;BME280;4236;54.504;9.588;2023-04-29T04:11:12;101408.78;;;7.41;100.00
8398;BME280;4236;54.504;9.588;2023-04-29T04:13:42;101409.50;;;7.43;100.00
8398;BME280;4236;54.504;9.588;2023-04-29T04:16:10;101408.16;;;7.47;100.00
8398;BME280;4236;54.504;9.588;2023-04-29T04:18:38;101413.97;;;7.51;100.00
8398;BME280;4236;54.504;9.588;2023-04-29T04:21:06;101415.97;;;7.49;100.00
8398;BME280;4236;54.504;9.588;2023-04-29T04:23:34;101421.63;;;7.54;100.00
8398;BME280;4236;54.504;9.588;2023-04-29T04:26:01;101421.63;;;7.54;100.00
8398;BME280;4236;54.504;9.588;2023-04-29T04:28:29;101423.31;;;7.55;100.00
8398;BME280;4236;54.504;9.588;2023-04-29T04:30:58;101425.63;;;7.58;100.00
8398;BME280;4236;54.504;9.588;2023-04-29T04:33:26;101440.75;;;7.65;100.00
8398;BME280;4236;54.504;9.588;2023-04-29T04:35:54;101435.09;;;7.60;100.00
8398;BME280;4236;54.504;9.588;2023-04-29T04:38:22;101439.75;;;7.66;100.00
8398;BME280;4236;54.504;9.588;2023-04-29T04:40:50;101440.75;;;7.65;100.00
8398;BME280;4236;54.504;9.588;2023-04-29T04:43:18;101440.59;;;7.67;100.00
8398;BME280;4236;54.504;9.588;2023-04-29T04:45:46;101442.94;;;7.70;100.00
8398;BME280;4236;54.504;9.588;2023-04-29T04:48:15;101444.09;;;7.75;100.00
8398;BME280;4236;54.504;9.588;2023-04-29T04:50:43;101454.22;;;7.72;100.00
8398;BME280;4236;54.504;9.588;2023-04-29T04:53:11;101458.69;;;7.71;100.00
8398;BME280;4236;54.504;9.588;2023-04-29T04:55:38;101457.53;;;7.74;100.00
8398;BME280;4236;54.504;9.588;2023-04-29T04:58:06;101459.69;;;7.70;100.00
8398;BME280;4236;54.504;9.588;2023-04-29T05:00:34;101457.19;;;7.77;100.00
8398;BME280;4236;54.504;9.588;2023-04-29T05:03:01;101465.88;;;7.79;100.00
8398;BME280;4236;54.504;9.588;2023-04-29T05:05:32;101470.34;;;7.78;100.00
8398;BME280;4236;54.504;9.588;2023-04-29T05:08:00;101476.47;;;7.79;100.00
8398;BME280;4236;54.504;9.588;2023-04-29T05:10:28;101469.69;;;7.85;100.00
8398;BME280;4236;54.504;9.588;2023-04-29T05:12:55;101469.38;;;7.88;100.00
8398;BME280;4236;54.504;9.588;2023-04-29T05:15:23;101470.22;;;7.96;100.00
8398;BME280;4236;54.504;9.588;2023-04-29T05:17:53;101471.72;;;8.07;100.00
8398;BME280;4236;54.504;9.588;2023-04-29T05:20:20;101472.09;;;8.12;100.00
8398;BME280;4236;54.504;9.588;2023-04-29T05:22:49;101470.28;;;8.20;100.00
8398;BME280;4236;54.504;9.588;2023-04-29T05:25:17;101474.66;;;8.29;100.00
8398;BME280;4236;54.504;9.588;2023-04-29T05:27:45;101472.66;;;8.31;100.00
8398;BME280;4236;54.504;9.588;2023-04-29T05:30:13;101472.97;;;8.37;100.00
8398;BME280;4236;54.504;9.588;2023-04-29T05:32:41;101472.16;;;8.52;100.00
8398;BME280;4236;54.504;9.588;2023-04-29T05:35:10;101487.13;;;8.61;100.00
8398;BME280;4236;54.504;9.588;2023-04-29T05:37:39;101487.97;;;8.62;100.00
8398;BME280;4236;54.504;9.588;2023-04-29T05:40:08;101479.16;;;8.69;100.00
8398;BME280;4236;54.504;9.588;2023-04-29T05:42:36;101489.28;;;8.82;100.00
8398;BME280;4236;54.504;9.588;2023-04-29T05:45:05;101486.28;;;8.93;100.00
8398;BME280;4236;54.504;9.588;2023-04-29T05:47:33;101494.09;;;8.95;100.00
8398;BME280;4236;54.504;9.588;2023-04-29T05:50:01;101497.59;;;8.95;100.00
8398;BME280;4236;54.504;9.588;2023-04-29T05:52:28;101502.75;;;8.97;100.00
8398;BME280;4236;54.504;9.588;2023-04-29T05:54:57;101498.91;;;9.07;100.00
8398;BME280;4236;54.504;9.588;2023-04-29T05:57:28;101504.03;;;9.25;100.00
8398;BME280;4236;54.504;9.588;2023-04-29T05:59:58;101512.66;;;9.35;100.00
8398;BME280;4236;54.504;9.588;2023-04-29T06:02:26;101505.66;;;9.42;100.00
8398;BME280;4236;54.504;9.588;2023-04-29T06:04:54;101514.31;;;9.36;100.00
8398;BME280;4236;54.504;9.588;2023-04-29T06:07:23;101518.47;;;9.38;100.00
8398;BME280;4236;54.504;9.588;2023-04-29T06:09:53;101515.47;;;9.50;100.00
8398;BME280;4236;54.504;9.588;2023-04-29T06:12:22;101523.78;;;9.55;100.00
8398;BME280;4236;54.504;9.588;2023-04-29T06:14:51;101521.41;;;9.60;100.00
8398;BME280;4236;54.504;9.588;2023-04-29T06:17:19;101522.03;;;9.78;100.00
8398;BME280;4236;54.504;9.588;2023-04-29T06:19:47;101523.31;;;9.90;100.00
8398;BME280;4236;54.504;9.588;2023-04-29T06:22:15;101529.78;;;9.95;100.00
8398;BME280;4236;54.504;9.588;2023-04-29T06:24:43;101529.28;;;9.92;100.00
8398;BME280;4236;54.504;9.588;2023-04-29T06:27:10;101531.31;;;9.90;100.00
8398;BME280;4236;54.504;9.588;2023-04-29T06:29:40;101533.13;;;9.89;100.00
8398;BME280;4236;54.504;9.588;2023-04-29T06:32:09;101536.34;;;9.77;100.00
8398;BME280;4236;54.504;9.588;2023-04-29T06:34:39;101535.34;;;9.78;100.00
8398;BME280;4236;54.504;9.588;2023-04-29T06:37:07;101546.97;;;9.77;100.00
8398;BME280;4236;54.504;9.588;2023-04-29T06:39:34;101535.53;;;9.76;100.00
8398;BME280;4236;54.504;9.588;2023-04-29T06:42:02;101544.16;;;9.78;100.00
8398;BME280;4236;54.504;9.588;2023-04-29T06:44:30;101548.84;;;9.68;100.00
8398;BME280;4236;54.504;9.588;2023-04-29T06:46:58;101540.66;;;9.78;100.00
8398;BME280;4236;54.504;9.588;2023-04-29T06:49:27;101547.53;;;9.72;100.00
8398;BME280;4236;54.504;9.588;2023-04-29T06:51:55;101551.13;;;9.87;100.00
8398;BME280;4236;54.504;9.588;2023-04-29T06:54:23;101553.31;;;9.84;100.00
8398;BME280;4236;54.504;9.588;2023-04-29T06:56:50;101555.56;;;10.03;100.00
8398;BME280;4236;54.504;9.588;2023-04-29T06:59:18;101556.91;;;10.38;100.00
8398;BME280;4236;54.504;9.588;2023-04-29T07:01:46;101560.78;;;10.58;100.00
8398;BME280;4236;54.504;9.588;2023-04-29T07:04:15;101550.66;;;10.76;100.00
8398;BME280;4236;54.504;9.588;2023-04-29T07:06:44;101546.09;;;10.85;100.00
8398;BME280;4236;54.504;9.588;2023-04-29T07:09:13;101548.34;;;10.96;100.00
8398;BME280;4236;54.504;9.588;2023-04-29T07:11:40;101556.13;;;11.20;100.00
8398;BME280;4236;54.504;9.588;2023-04-29T07:14:08;101554.97;;;11.23;100.00
8398;BME280;4236;54.504;9.588;2023-04-29T07:16:36;101553.44;;;11.57;100.00
8398;BME280;4236;54.504;9.588;2023-04-29T07:19:04;101549.06;;;11.79;100.00
8398;BME280;4236;54.504;9.588;2023-04-29T07:21:31;101557.31;;;11.99;100.00
8398;BME280;4236;54.504;9.588;2023-04-29T07:24:00;101556.41;;;12.06;100.00
8398;BME280;4236;54.504;9.588;2023-04-29T07:26:30;101552.88;;;12.20;100.00
8398;BME280;4236;54.504;9.588;2023-04-29T07:28:58;101550.91;;;12.29;100.00
8398;BME280;4236;54.504;9.588;2023-04-29T07:31:25;101553.56;;;12.44;100.00
8398;BME280;4236;54.504;9.588;2023-04-29T07:33:53;101551.41;;;12.54;100.00
8398;BME280;4236;54.504;9.588;2023-04-29T07:36:22;101564.31;;;12.50;100.00
8398;BME280;4236;54.504;9.588;2023-04-29T07:38:50;101570.97;;;12.40;100.00
8398;BME280;4236;54.504;9.588;2023-04-29T07:41:20;101572.19;;;12.37;100.00
8398;BME280;4236;54.504;9.588;2023-04-29T07:43:47;101575.16;;;12.28;100.00
8398;BME280;4236;54.504;9.588;2023-04-29T07:46:15;101574.66;;;12.53;100.00
8398;BME280;4236;54.504;9.588;2023-04-29T07:48:43;101567.59;;;12.67;100.00
8398;BME280;4236;54.504;9.588;2023-04-29T07:51:12;101580.13;;;12.66;100.00
8398;BME280;4236;54.504;9.588;2023-04-29T07:53:40;101582.63;;;12.68;100.00
8398;BME280;4236;54.504;9.588;2023-04-29T07:56:08;101574.78;;;12.45;100.00
8398;BME280;4236;54.504;9.588;2023-04-29T07:58:37;101589.28;;;12.57;100.00
8398;BME280;4236;54.504;9.588;2023-04-29T08:01:06;101589.28;;;12.57;97.96
8398;BME280;4236;54.504;9.588;2023-04-29T08:03:34;101583.34;;;12.76;100.00
8398;BME280;4236;54.504;9.588;2023-04-29T08:06:06;101585.69;;;12.86;99.78
8398;BME280;4236;54.504;9.588;2023-04-29T08:08:34;101587.19;;;13.10;99.99
8398;BME280;4236;54.504;9.588;2023-04-29T08:11:02;101586.88;;;13.19;90.72
8398;BME280;4236;54.504;9.588;2023-04-29T08:13:29;101583.81;;;13.22;90.48
8398;BME280;4236;54.504;9.588;2023-04-29T08:15:59;101582.81;;;12.88;91.23
8398;BME280;4236;54.504;9.588;2023-04-29T08:18:26;101597.69;;;12.90;95.73
8398;BME280;4236;54.504;9.588;2023-04-29T08:20:54;101600.03;;;12.78;95.90
8398;BME280;4236;54.504;9.588;2023-04-29T08:23:22;101591.13;;;12.93;95.53
8398;BME280;4236;54.504;9.588;2023-04-29T08:25:50;101592.47;;;13.24;91.12
8398;BME280;4236;54.504;9.588;2023-04-29T08:28:18;101605.56;;;13.13;88.25
8398;BME280;4236;54.504;9.588;2023-04-29T08:30:46;101608.22;;;13.13;89.73
8398;BME280;4236;54.504;9.588;2023-04-29T08:33:16;101596.97;;;13.03;90.86
8398;BME280;4236;54.504;9.588;2023-04-29T08:35:44;101604.16;;;13.17;89.62
8398;BME280;4236;54.504;9.588;2023-04-29T08:38:12;101605.88;;;13.24;93.30
8398;BME280;4236;54.504;9.588;2023-04-29T08:40:41;101613.97;;;13.31;83.30
8398;BME280;4236;54.504;9.588;2023-04-29T08:43:12;101618.53;;;13.37;84.79
8398;BME280;4236;54.504;9.588;2023-04-29T08:45:40;101621.47;;;13.42;87.36
8398;BME280;4236;54.504;9.588;2023-04-29T08:48:09;101620.50;;;13.50;90.92
8398;BME280;4236;54.504;9.588;2023-04-29T08:50:40;101607.75;;;13.52;95.64
8398;BME280;4236;54.504;9.588;2023-04-29T08:53:09;101619.81;;;13.69;92.38
8398;BME280;4236;54.504;9.588;2023-04-29T08:55:40;101610.81;;;13.83;91.35
8398;BME280;4236;54.504;9.588;2023-04-29T08:58:09;101627.50;;;13.78;92.64
8398;BME280;4236;54.504;9.588;2023-04-29T09:00:38;101623.88;;;13.58;90.21
8398;BME280;4236;54.504;9.588;2023-04-29T09:03:11;101626.84;;;13.70;83.41
8398;BME280;4236;54.504;9.588;2023-04-29T09:05:44;101620.50;;;13.77;88.12
8398;BME280;4236;54.504;9.588;2023-04-29T09:08:15;101619.28;;;13.52;83.45
8398;BME280;4236;54.504;9.588;2023-04-29T09:10:43;101622.78;;;13.80;87.44
8398;BME280;4236;54.504;9.588;2023-04-29T09:13:22;101619.84;;;14.03;86.97
8398;BME280;4236;54.504;9.588;2023-04-29T09:15:50;101625.50;;;14.21;83.32
8398;BME280;4236;54.504;9.588;2023-04-29T09:18:51;101617.88;;;14.66;87.25
8398;BME280;4236;54.504;9.588;2023-04-29T09:21:23;101619.88;;;14.51;84.33
8398;BME280;4236;54.504;9.588;2023-04-29T09:23:53;101621.75;;;14.50;73.07
8398;BME280;4236;54.504;9.588;2023-04-29T09:26:21;101622.91;;;14.34;74.59
8398;BME280;4236;54.504;9.588;2023-04-29T09:29:05;101619.84;;;14.44;70.55
8398;BME280;4236;54.504;9.588;2023-04-29T09:31:34;101621.06;;;14.35;69.79
8398;BME280;4236;54.504;9.588;2023-04-29T09:34:02;101623.78;;;14.42;74.88
8398;BME280;4236;54.504;9.588;2023-04-29T09:36:52;101623.88;;;14.27;72.18
8398;BME280;4236;54.504;9.588;2023-04-29T09:39:24;101631.16;;;14.33;71.26
8398;BME280;4236;54.504;9.588;2023-04-29T09:41:59;101626.75;;;14.25;68.19
8398;BME280;4236;54.504;9.588;2023-04-29T09:44:30;101638.13;;;14.27;72.70
8398;BME280;4236;54.504;9.588;2023-04-29T09:47:01;101631.22;;;14.46;69.75
8398;BME280;4236;54.504;9.588;2023-04-29T09:49:30;101637.03;;;14.22;68.83
8398;BME280;4236;54.504;9.588;2023-04-29T09:52:03;101634.84;;;14.32;73.91
8398;BME280;4236;54.504;9.588;2023-04-29T09:54:33;101633.28;;;14.44;71.57
8398;BME280;4236;54.504;9.588;2023-04-29T09:57:02;101630.94;;;14.88;76.69
8398;BME280;4236;54.504;9.588;2023-04-29T09:59:32;101641.56;;;14.56;73.88
8398;BME280;4236;54.504;9.588;2023-04-29T10:02:05;101644.09;;;14.70;72.33
8398;BME280;4236;54.504;9.588;2023-04-29T10:04:37;101631.34;;;14.85;72.70
8398;BME280;4236;54.504;9.588;2023-04-29T10:07:08;101634.25;;;14.84;72.13
8398;BME280;4236;54.504;9.588;2023-04-29T10:09:36;101641.66;;;14.82;75.97
8398;BME280;4236;54.504;9.588;2023-04-29T10:12:06;101641.22;;;14.65;75.53
8398;BME280;4236;54.504;9.588;2023-04-29T10:14:38;101645.75;;;14.65;77.13
8398;BME280;4236;54.504;9.588;2023-04-29T10:17:12;101638.13;;;14.68;77.57
8398;BME280;4236;54.504;9.588;2023-04-29T10:19:47;101648.31;;;14.92;81.97
8398;BME280;4236;54.504;9.588;2023-04-29T10:22:27;101644.63;;;15.07;83.46
8398;BME280;4236;54.504;9.588;2023-04-29T10:24:56;101645.97;;;14.29;89.38
8398;BME280;4236;54.504;9.588;2023-04-29T10:27:26;101647.81;;;14.28;91.52
8398;BME280;4236;54.504;9.588;2023-04-29T10:29:55;101655.50;;;14.04;90.78
8398;BME280;4236;54.504;9.588;2023-04-29T10:32:25;101656.78;;;14.08;79.72
8398;BME280;4236;54.504;9.588;2023-04-29T10:35:10;101655.31;;;14.39;78.56
8398;BME280;4236;54.504;9.588;2023-04-29T10:37:40;101652.47;;;14.13;79.22
8398;BME280;4236;54.504;9.588;2023-04-29T10:40:11;101659.03;;;14.04;73.11
8398;BME280;4236;54.504;9.588;2023-04-29T10:42:43;101662.66;;;13.90;76.25
8398;BME280;4236;54.504;9.588;2023-04-29T10:45:18;101666.34;;;14.17;80.11
8398;BME280;4236;54.504;9.588;2023-04-29T10:48:11;101670.28;;;14.21;76.93
8398;BME280;4236;54.504;9.588;2023-04-29T10:53:24;101666.44;;;13.74;63.39
8398;BME280;4236;54.504;9.588;2023-04-29T10:55:53;101666.16;;;13.63;63.39
8398;BME280;4236;54.504;9.588;2023-04-29T10:58:35;101672.06;;;13.52;66.00
8398;BME280;4236;54.504;9.588;2023-04-29T11:01:03;101666.94;;;13.84;68.07
8398;BME280;4236;54.504;9.588;2023-04-29T11:03:52;101669.41;;;13.86;68.07
8398;BME280;4236;54.504;9.588;2023-04-29T11:06:38;101666.75;;;13.58;69.28
8398;BME280;4236;54.504;9.588;2023-04-29T11:09:10;101661.56;;;13.57;71.00
8398;BME280;4236;54.504;9.588;2023-04-29T11:11:44;101665.28;;;13.56;68.82
8398;BME280;4236;54.504;9.588;2023-04-29T11:14:14;101666.25;;;13.48;71.02
8398;BME280;4236;54.504;9.588;2023-04-29T11:16:50;101667.13;;;13.83;67.79
8398;BME280;4236;54.504;9.588;2023-04-29T11:19:19;101674.72;;;14.07;70.12
8398;BME280;4236;54.504;9.588;2023-04-29T11:21:47;101656.22;;;14.19;67.85
8398;BME280;4236;54.504;9.588;2023-04-29T11:24:16;101667.69;;;14.00;67.39
8398;BME280;4236;54.504;9.588;2023-04-29T11:26:43;101665.78;;;13.66;64.62
8398;BME280;4236;54.504;9.588;2023-04-29T11:29:11;101678.63;;;13.77;66.66
8398;BME280;4236;54.504;9.588;2023-04-29T11:31:39;101674.94;;;13.78;70.64
8398;BME280;4236;54.504;9.588;2023-04-29T11:34:07;101675.16;;;13.76;64.21
8398;BME280;4236;54.504;9.588;2023-04-29T11:36:35;101673.19;;;13.92;64.09
8398;BME280;4236;54.504;9.588;2023-04-29T11:39:03;101692.53;;;13.87;64.58
8398;BME280;4236;54.504;9.588;2023-04-29T11:41:32;101685.06;;;14.38;71.91
8398;BME280;4236;54.504;9.588;2023-04-29T11:44:01;101687.16;;;14.49;66.38
8398;BME280;4236;54.504;9.588;2023-04-29T11:46:30;101691.97;;;13.92;72.98
8398;BME280;4236;54.504;9.588;2023-04-29T11:48:58;101687.44;;;14.26;79.08
8398;BME280;4236;54.504;9.588;2023-04-29T11:51:27;101691.22;;;14.79;72.69
8398;BME280;4236;54.504;9.588;2023-04-29T11:53:55;101692.91;;;14.39;71.49
8398;BME280;4236;54.504;9.588;2023-04-29T11:56:24;101692.66;;;14.00;76.70
8398;BME280;4236;54.504;9.588;2023-04-29T11:58:57;101688.53;;;14.04;73.38
8398;BME280;4236;54.504;9.588;2023-04-29T12:01:26;101688.41;;;14.47;84.95
8398;BME280;4236;54.504;9.588;2023-04-29T12:03:56;101689.41;;;14.39;79.97
8398;BME280;4236;54.504;9.588;2023-04-29T12:06:27;101691.78;;;14.27;81.62
8398;BME280;4236;54.504;9.588;2023-04-29T12:08:58;101702.38;;;14.08;90.89
8398;BME280;4236;54.504;9.588;2023-04-29T12:11:26;101694.78;;;13.83;91.57
8398;BME280;4236;54.504;9.588;2023-04-29T12:13:56;101704.81;;;13.75;94.45
8398;BME280;4236;54.504;9.588;2023-04-29T12:16:24;101709.09;;;13.69;94.81
8398;BME280;4236;54.504;9.588;2023-04-29T12:18:55;101700.00;;;13.64;95.29
8398;BME280;4236;54.504;9.588;2023-04-29T12:21:22;101711.34;;;13.45;91.92
8398;BME280;4236;54.504;9.588;2023-04-29T12:23:50;101711.63;;;13.28;95.57
8398;BME280;4236;54.504;9.588;2023-04-29T12:26:18;101701.28;;;13.47;96.02
8398;BME280;4236;54.504;9.588;2023-04-29T12:28:48;101711.03;;;13.54;95.60
8398;BME280;4236;54.504;9.588;2023-04-29T12:31:21;101718.63;;;13.51;99.07
8398;BME280;4236;54.504;9.588;2023-04-29T12:33:52;101724.03;;;13.36;100.00
8398;BME280;4236;54.504;9.588;2023-04-29T12:36:22;101731.44;;;13.13;98.82
8398;BME280;4236;54.504;9.588;2023-04-29T12:38:49;101714.91;;;13.09;100.00
8398;BME280;4236;54.504;9.588;2023-04-29T12:41:35;101714.91;;;13.09;100.00
8398;BME280;4236;54.504;9.588;2023-04-29T12:44:03;101717.00;;;12.78;100.00
8398;BME280;4236;54.504;9.588;2023-04-29T12:46:38;101724.09;;;12.71;100.00
8398;BME280;4236;54.504;9.588;2023-04-29T12:49:06;101706.34;;;12.85;100.00
8398;BME280;4236;54.504;9.588;2023-04-29T12:51:34;101734.97;;;12.69;100.00
8398;BME280;4236;54.504;9.588;2023-04-29T12:54:03;101732.41;;;12.47;100.00
8398;BME280;4236;54.504;9.588;2023-04-29T12:56:32;101742.56;;;12.51;100.00
8398;BME280;4236;54.504;9.588;2023-04-29T12:59:06;101737.38;;;12.64;100.00
8398;BME280;4236;54.504;9.588;2023-04-29T13:01:35;101737.50;;;13.07;100.00
8398;BME280;4236;54.504;9.588;2023-04-29T13:04:03;101749.47;;;12.90;100.00
8398;BME280;4236;54.504;9.588;2023-04-29T13:06:34;101737.09;;;12.74;100.00
8398;BME280;4236;54.504;9.588;2023-04-29T13:09:05;101744.63;;;13.14;99.97
8398;BME280;4236;54.504;9.588;2023-04-29T13:11:42;101733.69;;;13.52;100.00
8398;BME280;4236;54.504;9.588;2023-04-29T13:14:09;101733.91;;;13.00;100.00
8398;BME280;4236;54.504;9.588;2023-04-29T13:16:38;101742.44;;;12.89;100.00
8398;BME280;4236;54.504;9.588;2023-04-29T13:19:07;101750.75;;;12.64;100.00
8398;BME280;4236;54.504;9.588;2023-04-29T13:21:55;101746.81;;;12.75;100.00
8398;BME280;4236;54.504;9.588;2023-04-29T13:24:23;101748.81;;;12.29;100.00
8398;BME280;4236;54.504;9.588;2023-04-29T13:26:50;101744.13;;;12.31;100.00